sensor_id;sensor_type;location;lat;lon;timestamp;P1;durP1;ratioP1;P2;durP2;ratioP2
46447;SDS011;32145;50.390;30.778;2023-05-01T00:00:18;9.23;;;4.90;;
46447;SDS011;32145;50.390;30.778;2023-05-01T00:03:14;8.75;;;4.63;;
46447;SDS011;32145;50.390;30.778;2023-05-01T00:06:11;9.15;;;4.55;;
46447;SDS011;32145;50.390;30.778;2023-05-01T00:09:09;10.20;;;4.28;;
46447;SDS011;32145;50.390;30.778;2023-05-01T00:12:05;9.85;;;5.00;;
46447;SDS011;32145;50.390;30.778;2023-05-01T00:15:01;9.95;;;5.20;;
46447;SDS011;32145;50.390;30.778;2023-05-01T00:17:58;10.20;;;4.95;;
46447;SDS011;32145;50.390;30.778;2023-05-01T00:20:54;12.50;;;5.60;;
46447;SDS011;32145;50.390;30.778;2023-05-01T00:23:50;9.82;;;4.97;;
46447;SDS011;32145;50.390;30.778;2023-05-01T00:26:48;8.43;;;5.00;;
46447;SDS011;32145;50.390;30.778;2023-05-01T00:29:44;9.45;;;4.80;;
46447;SDS011;32145;50.390;30.778;2023-05-01T00:32:41;10.02;;;4.72;;
46447;SDS011;32145;50.390;30.778;2023-05-01T00:35:37;9.52;;;4.88;;
46447;SDS011;32145;50.390;30.778;2023-05-01T00:38:33;11.65;;;4.63;;
46447;SDS011;32145;50.390;30.778;2023-05-01T00:41:30;10.52;;;5.32;;
46447;SDS011;32145;50.390;30.778;2023-05-01T00:44:27;10.90;;;5.47;;
46447;SDS011;32145;50.390;30.778;2023-05-01T00:47:23;11.57;;;5.32;;
46447;SDS011;32145;50.390;30.778;2023-05-01T00:50:18;10.77;;;5.45;;
46447;SDS011;32145;50.390;30.778;2023-05-01T00:53:12;10.50;;;5.18;;
46447;SDS011;32145;50.390;30.778;2023-05-01T00:56:06;12.35;;;5.65;;
46447;SDS011;32145;50.390;30.778;2023-05-01T00:59:01;9.32;;;5.03;;
46447;SDS011;32145;50.390;30.778;2023-05-01T01:01:57;9.18;;;5.25;;
46447;SDS011;32145;50.390;30.778;2023-05-01T01:04:51;13.13;;;5.78;;
46447;SDS011;32145;50.390;30.778;2023-05-01T01:07:46;10.55;;;5.47;;
46447;SDS011;32145;50.390;30.778;2023-05-01T01:10:49;10.55;;;5.63;;
46447;SDS011;32145;50.390;30.778;2023-05-01T01:13:53;13.48;;;5.88;;
46447;SDS011;32145;50.390;30.778;2023-05-01T01:16:58;10.48;;;5.50;;
46447;SDS011;32145;50.390;30.778;2023-05-01T01:20:13;11.23;;;5.00;;
46447;SDS011;32145;50.390;30.778;2023-05-01T01:27:14;11.73;;;5.43;;
46447;SDS011;32145;50.390;30.778;2023-05-01T01:30:34;14.07;;;6.90;;
46447;SDS011;32145;50.390;30.778;2023-05-01T01:33:52;14.88;;;7.15;;
46447;SDS011;32145;50.390;30.778;2023-05-01T01:36:55;13.80;;;7.28;;
46447;SDS011;32145;50.390;30.778;2023-05-01T01:39:58;13.50;;;6.95;;
46447;SDS011;32145;50.390;30.778;2023-05-01T01:43:01;13.35;;;6.53;;
46447;SDS011;32145;50.390;30.778;2023-05-01T01:45:59;11.40;;;5.88;;
46447;SDS011;32145;50.390;30.778;2023-05-01T01:49:01;11.45;;;6.32;;
46447;SDS011;32145;50.390;30.778;2023-05-01T01:52:01;13.25;;;6.43;;
46447;SDS011;32145;50.390;30.778;2023-05-01T01:58:00;10.85;;;5.93;;
46447;SDS011;32145;50.390;30.778;2023-05-01T02:00:58;10.95;;;5.72;;
46447;SDS011;32145;50.390;30.778;2023-05-01T02:03:54;10.68;;;6.40;;
46447;SDS011;32145;50.390;30.778;2023-05-01T02:06:55;11.10;;;5.70;;
46447;SDS011;32145;50.390;30.778;2023-05-01T02:09:51;9.05;;;5.30;;
46447;SDS011;32145;50.390;30.778;2023-05-01T02:12:47;12.85;;;5.97;;
46447;SDS011;32145;50.390;30.778;2023-05-01T02:15:44;10.20;;;5.95;;
46447;SDS011;32145;50.390;30.778;2023-05-01T02:18:42;10.48;;;5.82;;
46447;SDS011;32145;50.390;30.778;2023-05-01T02:21:40;13.77;;;5.97;;
46447;SDS011;32145;50.390;30.778;2023-05-01T02:24:39;10.98;;;5.45;;
46447;SDS011;32145;50.390;30.778;2023-05-01T02:27:39;9.73;;;5.13;;
46447;SDS011;32145;50.390;30.778;2023-05-01T02:30:39;8.93;;;5.32;;
46447;SDS011;32145;50.390;30.778;2023-05-01T02:33:35;8.77;;;4.75;;
46447;SDS011;32145;50.390;30.778;2023-05-01T02:36:32;9.90;;;4.85;;
46447;SDS011;32145;50.390;30.778;2023-05-01T02:39:28;8.68;;;4.78;;
46447;SDS011;32145;50.390;30.778;2023-05-01T02:42:26;7.82;;;4.55;;
46447;SDS011;32145;50.390;30.778;2023-05-01T02:45:23;8.23;;;4.50;;
46447;SDS011;32145;50.390;30.778;2023-05-01T02:48:21;11.40;;;4.78;;
46447;SDS011;32145;50.390;30.778;2023-05-01T02:51:20;8.25;;;4.70;;
46447;SDS011;32145;50.390;30.778;2023-05-01T02:54:19;8.77;;;4.85;;
46447;SDS011;32145;50.390;30.778;2023-05-01T02:57:16;7.57;;;4.78;;
46447;SDS011;32145;50.390;30.778;2023-05-01T03:00:14;8.27;;;4.80;;
46447;SDS011;32145;50.390;30.778;2023-05-01T03:03:10;6.72;;;4.00;;
46447;SDS011;32145;50.390;30.778;2023-05-01T03:06:06;9.07;;;4.50;;
46447;SDS011;32145;50.390;30.778;2023-05-01T03:09:02;10.38;;;4.18;;
46447;SDS011;32145;50.390;30.778;2023-05-01T03:11:59;7.93;;;4.18;;
46447;SDS011;32145;50.390;30.778;2023-05-01T03:14:55;8.93;;;4.00;;
46447;SDS011;32145;50.390;30.778;2023-05-01T03:17:52;7.22;;;4.30;;
46447;SDS011;32145;50.390;30.778;2023-05-01T03:20:50;6.70;;;4.15;;
46447;SDS011;32145;50.390;30.778;2023-05-01T03:23:44;6.32;;;3.80;;
46447;SDS011;32145;50.390;30.778;2023-05-01T03:26:38;7.78;;;3.88;;
46447;SDS011;32145;50.390;30.778;2023-05-01T03:29:33;5.28;;;3.50;;
46447;SDS011;32145;50.390;30.778;2023-05-01T03:32:29;5.28;;;3.28;;
46447;SDS011;32145;50.390;30.778;2023-05-01T03:35:27;5.90;;;3.60;;
46447;SDS011;32145;50.390;30.778;2023-05-01T03:38:23;6.85;;;3.85;;
46447;SDS011;32145;50.390;30.778;2023-05-01T03:41:19;8.05;;;3.10;;
46447;SDS011;32145;50.390;30.778;2023-05-01T03:44:15;6.22;;;2.95;;
46447;SDS011;32145;50.390;30.778;2023-05-01T03:47:10;5.43;;;3.03;;
46447;SDS011;32145;50.390;30.778;2023-05-01T03:50:05;5.15;;;3.00;;
46447;SDS011;32145;50.390;30.778;2023-05-01T03:53:01;5.47;;;2.95;;
46447;SDS011;32145;50.390;30.778;2023-05-01T03:55:55;4.75;;;2.33;;
46447;SDS011;32145;50.390;30.778;2023-05-01T03:58:50;6.35;;;2.80;;
46447;SDS011;32145;50.390;30.778;2023-05-01T04:01:44;5.95;;;2.80;;
46447;SDS011;32145;50.390;30.778;2023-05-01T04:04:38;5.03;;;2.75;;
46447;SDS011;32145;50.390;30.778;2023-05-01T04:07:33;10.93;;;3.05;;
46447;SDS011;32145;50.390;30.778;2023-05-01T04:10:29;4.05;;;2.50;;
46447;SDS011;32145;50.390;30.778;2023-05-01T04:13:23;4.82;;;2.53;;
46447;SDS011;32145;50.390;30.778;2023-05-01T04:16:17;5.63;;;2.70;;
46447;SDS011;32145;50.390;30.778;2023-05-01T04:19:12;4.55;;;2.65;;
46447;SDS011;32145;50.390;30.778;2023-05-01T04:22:06;5.82;;;3.42;;
46447;SDS011;32145;50.390;30.778;2023-05-01T04:25:01;3.63;;;2.38;;
46447;SDS011;32145;50.390;30.778;2023-05-01T04:27:56;4.80;;;2.33;;
46447;SDS011;32145;50.390;30.778;2023-05-01T04:30:53;5.57;;;2.38;;
46447;SDS011;32145;50.390;30.778;2023-05-01T04:33:49;3.92;;;2.38;;
46447;SDS011;32145;50.390;30.778;2023-05-01T04:36:45;4.07;;;2.20;;
46447;SDS011;32145;50.390;30.778;2023-05-01T04:39:42;4.00;;;2.22;;
46447;SDS011;32145;50.390;30.778;2023-05-01T04:42:38;3.92;;;2.20;;
46447;SDS011;32145;50.390;30.778;2023-05-01T04:45:36;5.28;;;2.30;;
46447;SDS011;32145;50.390;30.778;2023-05-01T04:48:33;4.45;;;2.10;;
46447;SDS011;32145;50.390;30.778;2023-05-01T04:51:29;5.13;;;2.05;;
46447;SDS011;32145;50.390;30.778;2023-05-01T04:54:25;3.00;;;2.00;;
46447;SDS011;32145;50.390;30.778;2023-05-01T04:57:22;4.25;;;2.20;;
46447;SDS011;32145;50.390;30.778;2023-05-01T05:00:18;4.70;;;2.10;;
46447;SDS011;32145;50.390;30.778;2023-05-01T05:03:14;4.05;;;2.00;;
46447;SDS011;32145;50.390;30.778;2023-05-01T05:06:10;4.97;;;2.00;;
46447;SDS011;32145;50.390;30.778;2023-05-01T05:09:06;4.32;;;2.15;;
46447;SDS011;32145;50.390;30.778;2023-05-01T05:12:03;4.47;;;2.00;;
46447;SDS011;32145;50.390;30.778;2023-05-01T05:14:59;3.55;;;2.20;;
46447;SDS011;32145;50.390;30.778;2023-05-01T05:17:56;3.72;;;1.98;;
46447;SDS011;32145;50.390;30.778;2023-05-01T05:20:53;3.63;;;1.92;;
46447;SDS011;32145;50.390;30.778;2023-05-01T05:23:49;5.97;;;1.90;;
46447;SDS011;32145;50.390;30.778;2023-05-01T05:26:46;5.10;;;1.90;;
46447;SDS011;32145;50.390;30.778;2023-05-01T05:29:42;3.22;;;1.58;;
46447;SDS011;32145;50.390;30.778;2023-05-01T05:32:38;2.90;;;1.50;;
46447;SDS011;32145;50.390;30.778;2023-05-01T05:35:34;4.68;;;1.88;;
46447;SDS011;32145;50.390;30.778;2023-05-01T05:38:30;2.85;;;1.65;;
46447;SDS011;32145;50.390;30.778;2023-05-01T05:41:24;3.58;;;1.80;;
46447;SDS011;32145;50.390;30.778;2023-05-01T05:44:19;3.15;;;1.50;;
46447;SDS011;32145;50.390;30.778;2023-05-01T05:47:13;5.28;;;1.80;;
46447;SDS011;32145;50.390;30.778;2023-05-01T05:50:08;4.13;;;1.55;;
46447;SDS011;32145;50.390;30.778;2023-05-01T05:53:02;4.03;;;1.38;;
46447;SDS011;32145;50.390;30.778;2023-05-01T05:55:58;4.13;;;1.50;;
46447;SDS011;32145;50.390;30.778;2023-05-01T05:58:52;5.55;;;1.63;;
46447;SDS011;32145;50.390;30.778;2023-05-01T06:01:46;4.78;;;2.30;;
46447;SDS011;32145;50.390;30.778;2023-05-01T06:04:41;5.80;;;1.73;;
46447;SDS011;32145;50.390;30.778;2023-05-01T06:07:35;4.43;;;1.58;;
46447;SDS011;32145;50.390;30.778;2023-05-01T06:10:29;4.00;;;1.33;;
46447;SDS011;32145;50.390;30.778;2023-05-01T06:13:25;4.60;;;1.40;;
46447;SDS011;32145;50.390;30.778;2023-05-01T06:16:19;2.33;;;1.42;;
46447;SDS011;32145;50.390;30.778;2023-05-01T06:19:14;2.30;;;1.40;;
46447;SDS011;32145;50.390;30.778;2023-05-01T06:22:08;6.28;;;1.50;;
46447;SDS011;32145;50.390;30.778;2023-05-01T06:25:03;2.72;;;1.23;;
46447;SDS011;32145;50.390;30.778;2023-05-01T06:27:57;3.22;;;1.25;;
46447;SDS011;32145;50.390;30.778;2023-05-01T06:30:53;4.47;;;1.45;;
46447;SDS011;32145;50.390;30.778;2023-05-01T06:33:47;2.38;;;1.50;;
46447;SDS011;32145;50.390;30.778;2023-05-01T06:36:41;2.60;;;1.20;;
46447;SDS011;32145;50.390;30.778;2023-05-01T06:39:36;2.75;;;1.40;;
46447;SDS011;32145;50.390;30.778;2023-05-01T06:42:30;4.88;;;1.10;;
46447;SDS011;32145;50.390;30.778;2023-05-01T06:45:25;1.90;;;1.30;;
46447;SDS011;32145;50.390;30.778;2023-05-01T06:48:22;1.98;;;1.10;;
46447;SDS011;32145;50.390;30.778;2023-05-01T06:51:17;3.30;;;1.20;;
46447;SDS011;32145;50.390;30.778;2023-05-01T06:54:11;2.47;;;0.90;;
46447;SDS011;32145;50.390;30.778;2023-05-01T06:57:05;7.05;;;1.30;;
46447;SDS011;32145;50.390;30.778;2023-05-01T07:00:00;2.90;;;1.25;;
46447;SDS011;32145;50.390;30.778;2023-05-01T07:02:56;1.83;;;1.02;;
46447;SDS011;32145;50.390;30.778;2023-05-01T07:05:54;5.90;;;1.00;;
46447;SDS011;32145;50.390;30.778;2023-05-01T07:08:48;1.92;;;0.80;;
